createdAt,value
2023-07-03T00:00:11.604Z,13.18
2023-07-03T00:01:13.085Z,15.60
2023-07-03T00:02:14.633Z,17.23
2023-07-03T00:03:16.175Z,15.63
2023-07-03T00:04:17.693Z,15.90
2023-07-03T00:05:19.227Z,18.48
2023-07-03T00:06:20.679Z,19.27
2023-07-03T00:07:22.221Z,17.05
2023-07-03T00:08:23.866Z,15.00
2023-07-03T00:09:25.352Z,18.05
2023-07-03T00:10:26.834Z,17.20
2023-07-03T00:11:28.266Z,13.45
2023-07-03T00:12:29.767Z,13.63
2023-07-03T00:13:31.207Z,19.77
2023-07-03T00:14:32.675Z,18.05
2023-07-03T00:15:34.129Z,20.30
2023-07-03T00:16:35.613Z,19.55
2023-07-03T00:17:37.145Z,17.13
2023-07-03T00:18:38.616Z,18.75
2023-07-03T00:19:40.120Z,20.20
2023-07-03T00:20:41.635Z,18.92
2023-07-03T00:21:43.151Z,21.40
2023-07-03T00:22:44.662Z,16.10
2023-07-03T00:23:46.226Z,19.95
2023-07-03T00:24:47.715Z,24.38
2023-07-03T00:25:49.453Z,16.45
2023-07-03T00:26:51.214Z,17.42
2023-07-03T00:27:52.746Z,18.73
2023-07-03T00:28:54.230Z,16.05
2023-07-03T00:29:55.673Z,16.05
2023-07-03T00:30:57.222Z,19.48
2023-07-03T00:31:58.789Z,16.38
2023-07-03T00:33:00.439Z,18.77
2023-07-03T00:34:01.945Z,18.10
2023-07-03T00:35:03.370Z,20.60
2023-07-03T00:36:04.851Z,21.20
2023-07-03T00:37:06.318Z,20.00
2023-07-03T00:38:07.802Z,16.55
2023-07-03T00:39:09.286Z,18.92
2023-07-03T00:40:10.712Z,15.60
2023-07-03T00:41:12.188Z,16.95
2023-07-03T00:42:13.646Z,20.48
2023-07-03T00:43:15.159Z,16.80
2023-07-03T00:44:16.677Z,21.05
2023-07-03T00:45:18.176Z,17.27
2023-07-03T00:46:19.649Z,17.92
2023-07-03T00:47:21.146Z,19.80
2023-07-03T00:48:22.669Z,18.92
2023-07-03T00:49:24.146Z,17.52
2023-07-03T00:50:25.664Z,21.77
2023-07-03T00:51:27.196Z,18.40
2023-07-03T00:52:28.650Z,19.45
2023-07-03T00:53:30.142Z,22.50
2023-07-03T00:54:31.615Z,18.23
2023-07-03T00:55:33.094Z,16.60
2023-07-03T00:56:34.647Z,18.77
2023-07-03T00:57:36.118Z,24.35
2023-07-03T00:58:37.592Z,16.80
2023-07-03T00:59:39.063Z,19.15
2023-07-03T01:00:40.505Z,19.30
2023-07-03T01:01:42.019Z,21.50
2023-07-03T01:02:43.589Z,17.77
2023-07-03T01:03:45.096Z,25.02
2023-07-03T01:04:46.681Z,18.48
2023-07-03T01:05:48.359Z,16.88
2023-07-03T01:06:49.957Z,22.20
2023-07-03T01:07:51.447Z,16.88
2023-07-03T01:08:52.964Z,16.65
2023-07-03T01:09:54.424Z,18.88
2023-07-03T01:10:55.905Z,17.02
2023-07-03T01:11:57.372Z,19.67
2023-07-03T01:12:58.902Z,18.38
2023-07-03T01:14:00.409Z,17.98
2023-07-03T01:15:01.893Z,16.02
2023-07-03T01:16:03.442Z,22.13
2023-07-03T01:17:04.932Z,22.15
2023-07-03T01:18:06.405Z,19.25
2023-07-03T01:19:07.895Z,17.77
2023-07-03T01:20:09.348Z,19.40
2023-07-03T01:21:10.831Z,17.42
2023-07-03T01:22:12.284Z,19.45
2023-07-03T01:23:13.808Z,21.27
2023-07-03T01:24:15.308Z,14.98
2023-07-03T01:25:16.781Z,21.60
2023-07-03T01:26:18.253Z,21.60
2023-07-03T01:27:19.800Z,17.20
2023-07-03T01:28:21.338Z,16.65
2023-07-03T01:29:22.837Z,19.08
2023-07-03T01:30:24.320Z,21.20
2023-07-03T01:31:25.822Z,20.67
2023-07-03T01:32:27.330Z,19.77
2023-07-03T01:33:28.850Z,16.70
2023-07-03T01:34:30.338Z,16.98
2023-07-03T01:35:31.799Z,18.80
2023-07-03T01:36:33.268Z,17.63
2023-07-03T01:37:34.812Z,20.95
2023-07-03T01:38:36.318Z,20.63
2023-07-03T01:39:37.774Z,22.42
2023-07-03T01:40:39.233Z,19.27
2023-07-03T01:41:40.697Z,18.20
2023-07-03T01:42:42.218Z,17.55
2023-07-03T01:43:43.765Z,19.33
2023-07-03T01:44:45.243Z,16.33
2023-07-03T01:45:46.742Z,17.20
2023-07-03T01:46:48.222Z,15.98
2023-07-03T01:47:49.740Z,18.30
2023-07-03T01:48:51.237Z,18.42
2023-07-03T01:49:52.699Z,17.70
2023-07-03T01:50:54.194Z,17.55
2023-07-03T01:51:55.655Z,18.17
2023-07-03T01:52:57.115Z,20.25
2023-07-03T01:53:58.653Z,21.77
2023-07-03T01:55:00.116Z,19.85
2023-07-03T01:56:01.593Z,19.55
2023-07-03T01:57:03.059Z,19.38
2023-07-03T01:58:04.560Z,20.52
2023-07-03T01:59:06.079Z,21.00
2023-07-03T02:00:07.546Z,17.27
2023-07-03T02:01:09.130Z,18.30
2023-07-03T02:02:10.896Z,14.93
2023-07-03T02:03:12.469Z,16.80
2023-07-03T02:04:14.132Z,21.13
2023-07-03T02:05:15.643Z,19.58
2023-07-03T02:06:17.083Z,17.85
2023-07-03T02:07:18.570Z,17.55
2023-07-03T02:08:20.009Z,14.52
2023-07-03T02:09:21.493Z,20.90
2023-07-03T02:10:22.964Z,18.27
2023-07-03T02:11:24.435Z,19.60
2023-07-03T02:12:25.918Z,20.48
2023-07-03T02:13:27.362Z,17.70
2023-07-03T02:14:28.852Z,18.13
2023-07-03T02:15:30.343Z,21.10
2023-07-03T02:16:31.845Z,22.52
2023-07-03T02:17:33.453Z,19.85
2023-07-03T02:18:34.995Z,21.50
2023-07-03T02:19:36.590Z,23.63
2023-07-03T02:20:38.162Z,23.42
2023-07-03T02:21:39.719Z,15.80
2023-07-03T02:22:41.255Z,17.52
2023-07-03T02:23:42.820Z,18.65
2023-07-03T02:24:44.371Z,24.25
2023-07-03T02:25:45.824Z,19.17
2023-07-03T02:26:47.309Z,18.08
2023-07-03T02:27:48.838Z,14.80
2023-07-03T02:28:50.310Z,17.85
2023-07-03T02:29:51.817Z,21.80
2023-07-03T02:30:53.331Z,19.20
2023-07-03T02:31:54.806Z,15.48
2023-07-03T02:32:56.290Z,18.17
2023-07-03T02:33:57.786Z,14.85
2023-07-03T02:34:59.253Z,15.43
2023-07-03T02:36:00.728Z,15.38
2023-07-03T02:37:02.171Z,17.05
2023-07-03T02:38:03.618Z,19.45
2023-07-03T02:39:05.085Z,19.05
2023-07-03T02:40:06.535Z,20.02
2023-07-03T02:41:08.021Z,19.95
2023-07-03T02:42:09.511Z,17.13
2023-07-03T02:43:11.040Z,19.98
2023-07-03T02:44:12.520Z,17.50
2023-07-03T02:45:14.008Z,18.10
2023-07-03T02:46:15.469Z,17.77
2023-07-03T02:47:17.013Z,17.27
2023-07-03T02:48:18.513Z,18.73
2023-07-03T02:49:20.004Z,18.08
2023-07-03T02:50:21.503Z,15.85
2023-07-03T02:51:22.983Z,22.90
2023-07-03T02:52:24.659Z,17.35
2023-07-03T02:53:26.119Z,23.73
2023-07-03T02:54:27.571Z,18.23
2023-07-03T02:55:29.030Z,18.10
2023-07-03T02:56:30.470Z,17.20
2023-07-03T02:57:31.962Z,21.20
2023-07-03T02:58:33.431Z,18.33
2023-07-03T02:59:34.875Z,17.75
2023-07-03T03:00:36.394Z,18.77
2023-07-03T03:01:37.858Z,16.42
2023-07-03T03:02:39.435Z,19.67
2023-07-03T03:03:40.980Z,20.67
2023-07-03T03:04:42.551Z,18.75
2023-07-03T03:05:44.043Z,16.88
2023-07-03T03:06:45.521Z,14.93
2023-07-03T03:07:47.030Z,16.75
2023-07-03T03:08:48.468Z,16.73
2023-07-03T03:09:49.934Z,16.42
2023-07-03T03:10:51.385Z,16.35
2023-07-03T03:11:52.884Z,17.38
2023-07-03T03:12:54.361Z,16.25
2023-07-03T03:13:55.823Z,19.25
2023-07-03T03:14:57.258Z,24.23
2023-07-03T03:15:58.715Z,17.60
2023-07-03T03:17:00.263Z,14.98
2023-07-03T03:18:01.863Z,22.25
2023-07-03T03:19:03.367Z,16.10
2023-07-03T03:20:04.812Z,21.65
2023-07-03T03:21:06.289Z,14.80
2023-07-03T03:22:07.779Z,16.60
2023-07-03T03:23:09.276Z,16.20
2023-07-03T03:24:10.786Z,13.60
2023-07-03T03:25:12.223Z,21.77
2023-07-03T03:26:13.713Z,20.08
2023-07-03T03:27:17.141Z,16.73
2023-07-03T03:28:18.793Z,14.48
2023-07-03T03:29:20.248Z,20.52
2023-07-03T03:30:21.706Z,17.15
2023-07-03T03:31:23.278Z,17.58
2023-07-03T03:32:24.801Z,21.73
2023-07-03T03:33:26.309Z,16.40
2023-07-03T03:34:27.747Z,17.48
2023-07-03T03:35:29.242Z,16.25
2023-07-03T03:36:30.700Z,20.00
2023-07-03T03:37:32.148Z,17.85
2023-07-03T03:38:33.584Z,17.77
2023-07-03T03:39:35.102Z,16.95
2023-07-03T03:40:36.731Z,18.75
2023-07-03T03:41:38.246Z,21.65
2023-07-03T03:42:39.742Z,21.95
2023-07-03T03:43:41.218Z,22.33
2023-07-03T03:44:42.665Z,19.83
2023-07-03T03:45:44.178Z,16.98
2023-07-03T03:46:45.659Z,16.10
2023-07-03T03:47:47.175Z,18.42
2023-07-03T03:48:48.870Z,18.75
2023-07-03T03:49:50.400Z,21.98
2023-07-03T03:50:51.902Z,19.63
2023-07-03T03:51:53.372Z,19.35
2023-07-03T03:52:54.886Z,16.95
2023-07-03T03:53:56.323Z,15.70
2023-07-03T03:54:57.762Z,16.15
2023-07-03T03:55:59.228Z,16.83
2023-07-03T03:57:00.676Z,17.92
2023-07-03T03:58:02.155Z,17.17
2023-07-03T03:59:03.610Z,16.98
2023-07-03T04:00:05.075Z,18.65
2023-07-03T04:01:06.619Z,17.50
2023-07-03T04:02:08.231Z,19.80
2023-07-03T04:03:09.743Z,17.35
2023-07-03T04:04:11.251Z,19.42
2023-07-03T04:05:13.054Z,19.20
2023-07-03T04:06:14.771Z,19.75
2023-07-03T04:07:16.227Z,19.20
2023-07-03T04:08:17.691Z,18.90
2023-07-03T04:09:19.163Z,15.52
2023-07-03T04:10:20.628Z,19.20
2023-07-03T04:11:22.110Z,19.10
2023-07-03T04:12:23.667Z,24.48
2023-07-03T04:13:25.143Z,18.15
2023-07-03T04:14:26.624Z,20.83
2023-07-03T04:15:28.092Z,18.38
2023-07-03T04:16:29.590Z,20.73
2023-07-03T04:17:31.097Z,20.08
2023-07-03T04:18:32.595Z,19.25
2023-07-03T04:19:34.082Z,17.83
2023-07-03T04:20:35.539Z,17.30
2023-07-03T04:21:37.007Z,16.70
2023-07-03T04:22:38.441Z,17.00
2023-07-03T04:23:39.922Z,20.13
2023-07-03T04:24:41.390Z,16.70
2023-07-03T04:25:42.865Z,20.20
2023-07-03T04:26:44.359Z,17.17
2023-07-03T04:27:45.828Z,18.98
2023-07-03T04:28:47.297Z,20.23
2023-07-03T04:29:48.758Z,18.92
2023-07-03T04:30:50.245Z,21.50
2023-07-03T04:31:51.784Z,19.42
2023-07-03T04:32:53.380Z,16.83
2023-07-03T04:33:54.868Z,15.85
2023-07-03T04:34:56.328Z,20.52
2023-07-03T04:35:57.817Z,13.85
2023-07-03T04:36:59.286Z,15.38
2023-07-03T04:38:00.743Z,17.15
2023-07-03T04:39:02.250Z,17.77
2023-07-03T04:40:03.719Z,22.88
2023-07-03T04:41:05.186Z,19.08
2023-07-03T04:42:06.666Z,19.10
2023-07-03T04:43:08.139Z,16.67
2023-07-03T04:44:09.604Z,16.65
2023-07-03T04:45:11.054Z,16.85
2023-07-03T04:46:12.590Z,23.45
2023-07-03T04:47:14.181Z,20.23
2023-07-03T04:48:15.652Z,16.60
2023-07-03T04:49:17.144Z,21.75
2023-07-03T04:50:18.636Z,22.27
2023-07-03T04:51:20.100Z,19.00
2023-07-03T04:52:21.602Z,18.73
2023-07-03T04:53:23.179Z,19.85
2023-07-03T04:54:24.701Z,22.15
2023-07-03T04:55:26.164Z,19.80
2023-07-03T04:56:27.667Z,17.67
2023-07-03T04:57:29.153Z,17.35
2023-07-03T04:58:30.634Z,19.75
2023-07-03T04:59:32.109Z,18.63
2023-07-03T05:00:33.594Z,20.85
2023-07-03T05:01:35.128Z,21.00
2023-07-03T05:02:36.690Z,18.92
2023-07-03T05:03:38.209Z,17.48
2023-07-03T05:04:39.775Z,17.63
2023-07-03T05:05:41.282Z,18.65
2023-07-03T05:06:42.754Z,18.08
2023-07-03T05:07:44.270Z,18.98
2023-07-03T05:08:45.931Z,12.48
2023-07-03T05:09:47.376Z,16.05
2023-07-03T05:10:48.845Z,20.85
2023-07-03T05:11:50.292Z,17.52
2023-07-03T05:12:52.112Z,20.33
2023-07-03T05:13:53.595Z,21.27
2023-07-03T05:14:55.037Z,18.67
2023-07-03T05:15:56.552Z,18.20
2023-07-03T05:16:58.064Z,16.90
2023-07-03T05:17:59.721Z,23.50
2023-07-03T05:19:01.311Z,19.90
2023-07-03T05:20:02.796Z,18.40
2023-07-03T05:21:04.393Z,19.20
2023-07-03T05:22:06.019Z,16.42
2023-07-03T05:23:07.580Z,18.40
2023-07-03T05:24:09.100Z,19.15
2023-07-03T05:25:10.569Z,18.75
2023-07-03T05:26:12.051Z,14.27
2023-07-03T05:27:13.541Z,16.35
2023-07-03T05:28:15.080Z,16.23
2023-07-03T05:29:16.597Z,16.83
2023-07-03T05:30:18.168Z,18.90
2023-07-03T05:31:19.777Z,23.05
2023-07-03T05:32:21.344Z,18.30
2023-07-03T05:33:22.860Z,17.55
2023-07-03T05:34:24.354Z,20.42
2023-07-03T05:35:25.830Z,13.27
2023-07-03T05:36:27.280Z,17.35
2023-07-03T05:37:28.838Z,16.33
2023-07-03T05:38:30.319Z,15.25
2023-07-03T05:39:32.749Z,16.65
2023-07-03T05:40:34.363Z,21.42
2023-07-03T05:41:35.831Z,16.17
2023-07-03T05:42:37.307Z,21.25
2023-07-03T05:43:38.799Z,13.43
2023-07-03T05:44:40.291Z,15.68
2023-07-03T05:45:41.753Z,17.05
2023-07-03T05:46:43.281Z,18.10
2023-07-03T05:47:44.794Z,17.23
2023-07-03T05:48:46.312Z,15.77
2023-07-03T05:49:47.827Z,18.52
2023-07-03T05:50:49.276Z,18.98
2023-07-03T05:51:50.749Z,18.50
2023-07-03T05:52:52.221Z,16.48
2023-07-03T05:53:53.684Z,19.60
2023-07-03T05:54:55.198Z,20.77
2023-07-03T05:55:56.689Z,18.85
2023-07-03T05:56:59.369Z,14.40
2023-07-03T05:58:00.845Z,13.85
2023-07-03T05:59:02.316Z,19.02
2023-07-03T06:00:03.821Z,18.90
2023-07-03T06:01:05.319Z,19.42
2023-07-03T06:02:06.822Z,14.48
2023-07-03T06:03:08.345Z,19.65
2023-07-03T06:04:09.931Z,23.77
2023-07-03T06:05:11.538Z,18.80
2023-07-03T06:06:13.011Z,25.48
2023-07-03T06:07:14.499Z,23.25
2023-07-03T06:08:15.971Z,22.33
2023-07-03T06:09:17.472Z,14.65
2023-07-03T06:10:18.940Z,18.35
2023-07-03T06:11:20.415Z,17.63
2023-07-03T06:12:21.894Z,23.27
2023-07-03T06:13:23.441Z,24.45
2023-07-03T06:14:24.927Z,16.45
2023-07-03T06:15:26.460Z,18.30
2023-07-03T06:16:27.966Z,21.88
2023-07-03T06:17:29.514Z,16.55
2023-07-03T06:18:31.024Z,18.77
2023-07-03T06:19:32.476Z,17.42
2023-07-03T06:20:33.925Z,19.38
2023-07-03T06:21:35.398Z,15.63
2023-07-03T06:22:37.026Z,19.15
2023-07-03T06:23:43.660Z,18.80
2023-07-03T06:24:45.126Z,16.55
2023-07-03T06:25:46.614Z,21.65
2023-07-03T06:26:48.140Z,22.90
2023-07-03T06:27:49.622Z,18.08
2023-07-03T06:28:51.106Z,19.20
2023-07-03T06:29:52.593Z,19.13
2023-07-03T06:30:55.227Z,20.75
2023-07-03T06:31:56.964Z,13.88
2023-07-03T06:32:58.462Z,18.85
2023-07-03T06:33:59.990Z,21.17
2023-07-03T06:35:05.121Z,17.00
2023-07-03T06:36:08.069Z,14.68
2023-07-03T06:37:09.545Z,17.13
2023-07-03T06:38:11.010Z,20.55
2023-07-03T06:39:12.472Z,15.95
2023-07-03T06:40:13.924Z,15.85
2023-07-03T06:41:15.386Z,18.27
2023-07-03T06:42:16.875Z,17.05
2023-07-03T06:43:18.361Z,19.23
2023-07-03T06:44:19.821Z,16.33
2023-07-03T06:45:21.285Z,19.35
2023-07-03T06:46:22.766Z,17.48
2023-07-03T06:47:24.325Z,21.30
2023-07-03T06:48:25.878Z,13.70
2023-07-03T06:49:27.328Z,19.80
2023-07-03T06:50:28.857Z,18.42
2023-07-03T06:51:30.342Z,17.98
2023-07-03T06:52:31.854Z,19.85
2023-07-03T06:53:33.332Z,17.52
2023-07-03T06:54:34.801Z,22.08
2023-07-03T06:55:36.256Z,16.13
2023-07-03T06:56:37.821Z,17.85
2023-07-03T06:57:39.300Z,17.75
2023-07-03T06:58:40.774Z,20.30
2023-07-03T06:59:42.237Z,16.08
2023-07-03T07:00:43.708Z,15.68
2023-07-03T07:01:45.217Z,20.35
2023-07-03T07:02:46.812Z,16.80
2023-07-03T07:03:48.381Z,17.83
2023-07-03T07:04:49.989Z,15.65
2023-07-03T07:05:51.865Z,18.70
2023-07-03T07:06:53.762Z,15.40
2023-07-03T07:07:55.228Z,21.42
2023-07-03T07:08:56.717Z,16.48
2023-07-03T07:09:58.170Z,15.25
2023-07-03T07:10:59.643Z,15.55
2023-07-03T07:12:01.161Z,14.98
2023-07-03T07:13:02.629Z,16.45
2023-07-03T07:14:04.108Z,15.85
2023-07-03T07:15:05.577Z,17.05
2023-07-03T07:16:07.069Z,22.60
2023-07-03T07:17:08.592Z,12.82
2023-07-03T07:18:10.162Z,16.10
2023-07-03T07:19:11.773Z,17.00
2023-07-03T07:20:13.246Z,15.15
2023-07-03T07:21:14.700Z,15.05
2023-07-03T07:22:16.168Z,21.70
2023-07-03T07:23:17.625Z,13.93
2023-07-03T07:24:19.136Z,18.40
2023-07-03T07:25:20.626Z,17.05
2023-07-03T07:26:22.113Z,12.35
2023-07-03T07:27:23.583Z,11.02
2023-07-03T07:28:25.050Z,15.13
2023-07-03T07:29:26.601Z,18.05
2023-07-03T07:30:28.272Z,12.93
2023-07-03T07:31:29.854Z,18.30
2023-07-03T07:32:31.440Z,16.40
2023-07-03T07:33:32.952Z,17.35
2023-07-03T07:34:34.434Z,17.13
2023-07-03T07:35:35.870Z,19.02
2023-07-03T07:36:37.320Z,13.75
2023-07-03T07:37:38.816Z,18.98
2023-07-03T07:38:40.278Z,17.17
2023-07-03T07:39:41.740Z,13.77
2023-07-03T07:40:43.332Z,14.35
2023-07-03T07:41:44.799Z,14.60
2023-07-03T07:42:46.296Z,15.75
2023-07-03T07:43:47.773Z,19.52
2023-07-03T07:44:49.242Z,14.68
2023-07-03T07:45:50.856Z,17.23
2023-07-03T07:46:52.489Z,18.10
2023-07-03T07:47:54.158Z,17.58
2023-07-03T07:48:55.785Z,16.50
2023-07-03T07:49:57.558Z,17.85
2023-07-03T07:50:59.099Z,16.92
2023-07-03T07:52:00.553Z,18.33
2023-07-03T07:53:02.008Z,16.23
2023-07-03T07:54:03.479Z,13.32
2023-07-03T07:55:04.968Z,16.17
2023-07-03T07:56:06.486Z,16.67
2023-07-03T07:57:07.968Z,16.10
2023-07-03T07:58:09.448Z,15.60
2023-07-03T07:59:10.915Z,16.17
2023-07-03T08:00:12.402Z,15.38
2023-07-03T08:01:13.962Z,14.60
2023-07-03T08:02:15.531Z,15.45
2023-07-03T08:03:17.004Z,17.55
2023-07-03T08:04:18.597Z,18.67
2023-07-03T08:05:20.139Z,12.15
2023-07-03T08:06:21.693Z,18.67
2023-07-03T08:07:23.203Z,21.23
2023-07-03T08:08:24.661Z,14.85
2023-07-03T08:09:26.108Z,20.70
2023-07-03T08:10:27.570Z,14.80
2023-07-03T08:11:29.078Z,13.10
2023-07-03T08:12:30.563Z,19.95
2023-07-03T08:13:32.029Z,13.85
2023-07-03T08:14:33.496Z,15.65
2023-07-03T08:15:34.952Z,18.02
2023-07-03T08:16:36.481Z,14.77
2023-07-03T08:17:38.021Z,15.95
2023-07-03T08:18:39.524Z,10.13
2023-07-03T08:19:41.003Z,14.70
2023-07-03T08:20:42.470Z,13.20
2023-07-03T08:21:43.976Z,11.85
2023-07-03T08:22:45.455Z,15.25
2023-07-03T08:23:46.915Z,15.07
2023-07-03T08:24:48.414Z,15.10
2023-07-03T08:25:50.222Z,14.55
2023-07-03T08:26:52.441Z,12.23
2023-07-03T08:27:53.921Z,11.93
2023-07-03T08:28:55.666Z,13.43
2023-07-03T08:29:57.301Z,13.93
2023-07-03T08:30:58.939Z,15.25
2023-07-03T08:32:00.547Z,12.40
2023-07-03T08:33:02.073Z,14.63
2023-07-03T08:34:04.118Z,15.48
2023-07-03T08:37:14.481Z,11.07
2023-07-03T08:38:15.953Z,14.07
2023-07-03T08:39:17.423Z,15.48
2023-07-03T08:40:18.890Z,13.63
2023-07-03T08:41:20.335Z,12.18
2023-07-03T08:42:21.830Z,16.00
2023-07-03T08:43:23.360Z,13.60
2023-07-03T08:44:24.893Z,12.15
2023-07-03T08:45:26.387Z,11.88
2023-07-03T08:46:27.930Z,10.75
2023-07-03T08:47:29.536Z,10.95
2023-07-03T08:48:31.035Z,11.82
2023-07-03T08:49:32.517Z,11.80
2023-07-03T08:50:37.502Z,12.15
2023-07-03T08:51:39.377Z,11.23
2023-07-03T08:52:40.840Z,10.63
2023-07-03T08:53:42.289Z,16.02
2023-07-03T08:54:43.782Z,13.23
2023-07-03T08:55:45.283Z,9.75
2023-07-03T08:56:46.799Z,7.85
2023-07-03T08:57:48.267Z,14.40
2023-07-03T08:58:49.762Z,9.68
2023-07-03T08:59:51.225Z,16.42
2023-07-03T09:00:53.072Z,13.85
2023-07-03T09:01:55.079Z,15.13
2023-07-03T09:02:56.761Z,10.15
2023-07-03T09:03:58.465Z,12.60
2023-07-03T09:05:00.111Z,13.75
2023-07-03T09:06:01.751Z,13.57
2023-07-03T09:07:03.249Z,14.95
2023-07-03T09:08:04.714Z,15.15
2023-07-03T09:09:06.201Z,12.07
2023-07-03T09:10:07.653Z,12.88
2023-07-03T09:11:09.105Z,17.10
2023-07-03T09:12:10.591Z,11.88
2023-07-03T09:13:12.052Z,9.13
2023-07-03T09:14:13.578Z,9.07
2023-07-03T09:15:15.092Z,13.02
2023-07-03T09:16:16.622Z,12.48
2023-07-03T09:17:18.490Z,10.15
2023-07-03T09:18:20.016Z,10.30
2023-07-03T09:19:21.527Z,17.40
2023-07-03T09:20:23.045Z,13.23
2023-07-03T09:21:24.576Z,15.73
2023-07-03T09:22:26.044Z,10.80
2023-07-03T09:23:27.519Z,12.73
2023-07-03T09:24:29.806Z,17.58
2023-07-03T09:25:31.306Z,10.75
2023-07-03T09:26:32.807Z,12.57
2023-07-03T09:27:34.931Z,12.18
2023-07-03T09:28:36.518Z,11.38
2023-07-03T09:29:37.988Z,12.13
2023-07-03T09:30:40.093Z,14.50
2023-07-03T09:31:41.756Z,11.63
2023-07-03T09:32:43.362Z,15.70
2023-07-03T09:33:44.851Z,13.27
2023-07-03T09:34:46.304Z,17.08
2023-07-03T09:35:47.826Z,11.85
2023-07-03T09:36:49.273Z,11.95
2023-07-03T09:37:50.770Z,12.10
2023-07-03T09:38:52.246Z,11.48
2023-07-03T09:39:53.749Z,13.82
2023-07-03T09:40:56.968Z,12.32
2023-07-03T09:42:00.135Z,12.00
2023-07-03T09:43:01.677Z,13.25
2023-07-03T09:44:03.186Z,12.85
2023-07-03T09:45:05.208Z,13.07
2023-07-03T09:46:06.981Z,11.68
2023-07-03T09:47:08.519Z,11.23
2023-07-03T09:48:10.191Z,17.80
2023-07-03T09:49:12.698Z,17.80
2023-07-03T09:50:16.358Z,15.80
2023-07-03T09:51:18.200Z,12.85
2023-07-03T09:52:19.697Z,12.95
2023-07-03T09:53:21.251Z,10.23
2023-07-03T09:54:22.765Z,11.10
2023-07-03T09:55:24.245Z,12.32
2023-07-03T09:56:25.753Z,13.38
2023-07-03T09:57:27.199Z,10.73
2023-07-03T09:58:28.647Z,11.60
2023-07-03T09:59:30.113Z,11.73
2023-07-03T10:00:31.711Z,14.75
2023-07-03T10:03:42.136Z,15.30
2023-07-03T10:06:52.561Z,16.38
2023-07-03T10:07:54.320Z,17.33
2023-07-03T10:12:09.086Z,9.43
2023-07-03T10:13:10.686Z,12.32
2023-07-03T10:14:12.169Z,14.68
2023-07-03T10:15:13.633Z,9.38
2023-07-03T10:16:15.109Z,14.35
2023-07-03T10:17:16.686Z,13.70
2023-07-03T10:18:18.394Z,14.98
2023-07-03T10:19:19.895Z,10.48
2023-07-03T10:20:22.800Z,14.20
2023-07-03T10:21:24.705Z,12.15
2023-07-03T10:22:26.249Z,11.18
2023-07-03T10:23:27.737Z,10.68
2023-07-03T10:24:29.202Z,10.65
2023-07-03T10:25:30.652Z,12.93
2023-07-03T10:26:32.107Z,11.77
2023-07-03T10:27:33.645Z,8.60
2023-07-03T10:28:35.121Z,10.00
2023-07-03T10:29:36.604Z,13.55
2023-07-03T10:30:38.053Z,10.98
2023-07-03T10:31:39.661Z,14.57
2023-07-03T10:32:41.252Z,13.77
2023-07-03T10:33:42.743Z,10.25
2023-07-03T10:34:44.229Z,11.65
2023-07-03T10:35:45.744Z,12.20
2023-07-03T10:36:47.232Z,11.30
2023-07-03T10:37:48.820Z,11.40
2023-07-03T10:38:50.473Z,9.48
2023-07-03T10:39:51.974Z,13.88
2023-07-03T10:40:53.664Z,13.13
2023-07-03T10:41:55.411Z,10.07
2023-07-03T10:42:56.927Z,10.07
2023-07-03T10:43:58.420Z,11.43
2023-07-03T10:44:59.989Z,11.60
2023-07-03T10:46:01.561Z,10.13
2023-07-03T10:47:03.050Z,7.53
2023-07-03T10:48:04.570Z,7.20
2023-07-03T10:49:06.111Z,9.13
2023-07-03T10:50:07.627Z,8.70
2023-07-03T10:51:09.076Z,11.93
2023-07-03T10:52:10.553Z,14.18
2023-07-03T10:53:12.040Z,9.80
2023-07-03T10:54:13.602Z,12.27
2023-07-03T10:55:15.080Z,13.35
2023-07-03T10:56:16.561Z,12.57
2023-07-03T10:57:18.082Z,19.13
2023-07-03T10:58:19.676Z,10.77
2023-07-03T10:59:21.145Z,7.50
2023-07-03T11:00:22.666Z,17.58
2023-07-03T11:01:24.157Z,10.93
2023-07-03T11:02:25.683Z,11.25
2023-07-03T11:03:27.267Z,15.50
2023-07-03T11:04:28.776Z,12.32
2023-07-03T11:05:30.255Z,10.82
2023-07-03T11:06:31.735Z,12.05
2023-07-03T11:07:33.176Z,9.23
2023-07-03T11:08:34.682Z,14.70
2023-07-03T11:09:36.148Z,14.00
2023-07-03T11:10:37.706Z,9.43
2023-07-03T11:11:39.159Z,6.80
2023-07-03T11:12:40.638Z,11.57
2023-07-03T11:13:42.171Z,9.68
2023-07-03T11:14:43.652Z,7.43
2023-07-03T11:15:45.248Z,7.28
2023-07-03T11:16:46.830Z,8.05
2023-07-03T11:19:57.038Z,6.30
2023-07-03T11:23:09.430Z,8.25
2023-07-03T11:24:12.971Z,8.15
2023-07-03T11:25:14.468Z,9.23
2023-07-03T11:28:26.880Z,8.93
2023-07-03T11:29:28.706Z,7.88
2023-07-03T11:30:30.220Z,7.03
2023-07-03T11:31:31.791Z,10.70
2023-07-03T11:32:33.375Z,10.60
2023-07-03T11:36:51.036Z,8.70
2023-07-03T11:40:07.333Z,6.65
2023-07-03T11:43:34.721Z,7.25
2023-07-03T11:44:36.326Z,8.05
2023-07-03T11:45:37.790Z,7.00
2023-07-03T11:46:39.537Z,8.50
2023-07-03T11:47:41.175Z,8.30
2023-07-03T11:48:44.739Z,6.43
2023-07-03T11:49:46.212Z,7.22
2023-07-03T11:50:47.796Z,8.90
2023-07-03T11:51:49.275Z,7.80
2023-07-03T11:52:51.027Z,7.75
2023-07-03T11:53:52.497Z,8.40
2023-07-03T11:54:54.535Z,7.03
2023-07-03T11:55:56.021Z,8.55
2023-07-03T11:56:57.474Z,7.53
2023-07-03T11:58:14.438Z,10.55
2023-07-03T11:59:20.413Z,8.55
2023-07-03T12:00:21.950Z,8.65
2023-07-03T12:01:23.475Z,8.60
2023-07-03T12:02:25.048Z,12.25
2023-07-03T12:03:26.583Z,11.48
2023-07-03T12:04:28.219Z,12.88
2023-07-03T12:05:29.730Z,6.60
2023-07-03T12:06:31.192Z,11.05
2023-07-03T12:07:32.656Z,10.05
2023-07-03T12:08:34.148Z,6.90
2023-07-03T12:09:35.647Z,10.20
2023-07-03T12:10:37.137Z,9.27
2023-07-03T12:11:38.609Z,6.47
2023-07-03T12:12:40.128Z,9.90
2023-07-03T12:13:41.669Z,9.18
2023-07-03T12:14:43.290Z,8.38
2023-07-03T12:15:44.791Z,9.93
2023-07-03T12:16:46.312Z,10.25
2023-07-03T12:17:47.884Z,12.02
2023-07-03T12:18:49.400Z,8.02
2023-07-03T12:19:50.895Z,13.30
2023-07-03T12:20:52.441Z,10.88
2023-07-03T12:21:53.877Z,6.57
2023-07-03T12:22:55.348Z,9.15
2023-07-03T12:23:56.835Z,9.18
2023-07-03T12:24:58.347Z,15.85
2023-07-03T12:25:59.823Z,11.23
2023-07-03T12:27:01.294Z,10.80
2023-07-03T12:28:02.779Z,10.10
2023-07-03T12:29:04.270Z,8.60
2023-07-03T12:30:05.753Z,9.52
2023-07-03T12:31:07.298Z,12.27
2023-07-03T12:32:08.871Z,13.70
2023-07-03T12:33:10.456Z,7.05
2023-07-03T12:34:11.946Z,10.27
2023-07-03T12:35:13.411Z,9.15
2023-07-03T12:36:14.953Z,7.72
2023-07-03T12:37:16.420Z,10.20
2023-07-03T12:38:17.913Z,8.07
2023-07-03T12:39:19.361Z,11.55
2023-07-03T12:40:20.823Z,11.18
2023-07-03T12:41:22.327Z,13.43
2023-07-03T12:42:23.823Z,10.68
2023-07-03T12:43:25.268Z,12.07
2023-07-03T12:44:26.816Z,8.57
2023-07-03T12:45:28.264Z,7.22
2023-07-03T12:46:29.769Z,9.35
2023-07-03T12:47:31.335Z,11.13
2023-07-03T12:48:32.877Z,7.22
2023-07-03T12:49:34.373Z,9.43
2023-07-03T12:50:35.824Z,9.70
2023-07-03T12:51:37.309Z,9.07
2023-07-03T12:52:38.812Z,7.95
2023-07-03T12:53:40.264Z,7.88
2023-07-03T12:54:41.749Z,7.85
2023-07-03T12:55:43.216Z,13.02
2023-07-03T12:56:44.704Z,10.63
2023-07-03T12:57:46.195Z,11.57
2023-07-03T12:58:47.667Z,9.10
2023-07-03T12:59:49.184Z,10.10
2023-07-03T13:00:50.665Z,12.02
2023-07-03T13:01:52.162Z,10.75
2023-07-03T13:02:53.686Z,11.73
2023-07-03T13:03:55.184Z,8.95
2023-07-03T13:04:56.734Z,14.23
2023-07-03T13:05:58.356Z,9.82
2023-07-03T13:06:59.939Z,9.38
2023-07-03T13:08:01.499Z,10.13
2023-07-03T13:09:03.002Z,9.15
2023-07-03T13:10:04.523Z,6.93
2023-07-03T13:11:06.020Z,9.32
2023-07-03T13:12:07.480Z,12.77
2023-07-03T13:13:08.951Z,6.68
2023-07-03T13:14:10.433Z,8.68
2023-07-03T13:15:11.903Z,7.60
2023-07-03T13:16:13.450Z,9.80
2023-07-03T13:17:14.917Z,8.60
2023-07-03T13:18:16.402Z,11.35
2023-07-03T13:19:17.890Z,8.73
2023-07-03T13:20:19.356Z,8.50
2023-07-03T13:21:20.871Z,11.50
2023-07-03T13:22:22.319Z,9.68
2023-07-03T13:23:24.014Z,12.57
2023-07-03T13:24:25.500Z,10.07
2023-07-03T13:25:26.969Z,8.95
2023-07-03T13:26:28.473Z,11.85
2023-07-03T13:27:29.963Z,9.32
2023-07-03T13:28:31.426Z,9.13
2023-07-03T13:29:33.484Z,9.82
2023-07-03T13:30:35.061Z,11.10
2023-07-03T13:31:50.812Z,13.70
2023-07-03T13:32:53.914Z,9.55
2023-07-03T13:33:55.501Z,10.80
2023-07-03T13:34:57.082Z,9.45
2023-07-03T13:35:58.522Z,14.18
2023-07-03T13:37:00.109Z,13.77
2023-07-03T13:38:01.615Z,9.65
2023-07-03T13:39:03.094Z,10.52
2023-07-03T13:40:04.598Z,11.13